Augher, United Kingdom
Current Conditions -  °F | °C
As of 5:50 AM on Monday 20 Oct 2014 (Local Time) from EGAA Reporting Station
Broken Clouds Broken Clouds  
Wind Chill: 50°   Ceiling: 2300
Heat Index: 50°   Visibility: 6mi
Dew Point: 48°   Wind: 13mph
Humidity: 94%   Direction: 230°SW
Pressure: 29.8"   Gusts: NA
Location:  54.43°N, 7.13°W
Report Text: EGAA 200450Z 23011KT 9999 FEW009 BKN023 BKN031 10/09 Q1009
Loading
Personal Weather Stations






























Interactive Weather Map
Tropical Storm Tracking
New forecast layout! Learn more

10-Day Weather Forecast

Advertisements
Track Severe Weather on mobile